createdAt,value
2022-11-22T00:01:22.726Z,35.07
2022-11-22T00:03:51.529Z,30.97
2022-11-22T00:06:20.542Z,27.20
2022-11-22T00:08:52.040Z,34.47
2022-11-22T00:11:19.927Z,34.50
2022-11-22T00:13:47.950Z,32.97
2022-11-22T00:16:16.444Z,31.80
2022-11-22T00:18:44.653Z,24.83
2022-11-22T00:21:12.047Z,38.43
2022-11-22T00:23:39.968Z,19.23
2022-11-22T00:26:12.331Z,30.90
2022-11-22T00:28:40.331Z,34.57
2022-11-22T00:31:08.872Z,31.67
2022-11-22T00:33:36.328Z,34.33
2022-11-22T00:36:03.943Z,29.83
2022-11-22T00:38:32.026Z,34.73
2022-11-22T00:41:00.270Z,30.13
2022-11-22T00:43:29.145Z,37.87
2022-11-22T00:45:58.667Z,42.13
2022-11-22T00:48:26.833Z,29.43
2022-11-22T00:50:54.478Z,37.93
2022-11-22T00:53:23.898Z,34.50
2022-11-22T00:55:51.817Z,37.00
2022-11-22T00:58:21.320Z,37.27
2022-11-22T01:00:56.284Z,34.90
2022-11-22T01:03:24.780Z,38.57
2022-11-22T01:05:53.795Z,33.37
2022-11-22T01:08:21.514Z,32.30
2022-11-22T01:10:49.400Z,35.20
2022-11-22T01:13:17.304Z,35.10
2022-11-22T01:15:45.835Z,38.03
2022-11-22T01:18:13.506Z,28.40
2022-11-22T01:20:41.624Z,35.13
2022-11-22T01:23:10.166Z,36.70
2022-11-22T01:25:38.134Z,39.33
2022-11-22T01:28:06.041Z,31.00
2022-11-22T01:30:34.231Z,39.77
2022-11-22T01:33:02.980Z,32.90
2022-11-22T01:35:30.822Z,36.13
2022-11-22T01:37:58.500Z,38.13
2022-11-22T01:40:28.161Z,35.73
2022-11-22T01:43:00.589Z,35.17
2022-11-22T01:45:34.549Z,31.13
2022-11-22T01:48:08.661Z,32.00
2022-11-22T01:50:40.602Z,35.97
2022-11-22T01:53:14.847Z,35.27
2022-11-22T01:55:43.634Z,37.00
2022-11-22T01:58:16.961Z,34.20
2022-11-22T02:00:52.554Z,37.20
2022-11-22T02:03:22.971Z,28.57
2022-11-22T02:05:52.792Z,27.13
2022-11-22T02:08:33.671Z,37.00
2022-11-22T02:11:05.219Z,39.90
2022-11-22T02:13:38.466Z,31.10
2022-11-22T02:16:08.039Z,34.10
2022-11-22T02:18:38.820Z,30.87
2022-11-22T02:21:07.679Z,31.93
2022-11-22T02:23:46.080Z,32.20
2022-11-22T02:26:15.333Z,31.70
2022-11-22T02:28:43.735Z,34.60
2022-11-22T02:31:44.954Z,35.73
2022-11-22T02:34:13.332Z,37.03
2022-11-22T02:36:53.261Z,38.47
2022-11-22T02:39:27.839Z,33.30
2022-11-22T02:41:57.848Z,25.07
2022-11-22T02:44:26.119Z,31.27
2022-11-22T02:46:56.186Z,31.60
2022-11-22T02:49:25.745Z,30.20
2022-11-22T02:51:53.687Z,33.13
2022-11-22T02:54:21.964Z,28.33
2022-11-22T02:56:49.978Z,28.23
2022-11-22T02:59:18.111Z,30.40
2022-11-22T03:01:48.899Z,31.43
2022-11-22T03:04:25.321Z,32.77
2022-11-22T03:09:35.865Z,33.13
2022-11-22T03:12:04.642Z,33.33
2022-11-22T03:14:33.399Z,28.67
2022-11-22T03:17:00.874Z,29.90
2022-11-22T03:19:28.857Z,28.70
2022-11-22T03:21:55.971Z,33.63
2022-11-22T03:24:23.722Z,26.50
2022-11-22T03:26:51.600Z,27.60
2022-11-22T03:29:21.860Z,28.70
2022-11-22T03:31:50.531Z,33.50
2022-11-22T03:34:18.542Z,28.77
2022-11-22T03:36:45.878Z,26.67
2022-11-22T03:39:13.687Z,32.47
2022-11-22T03:41:40.829Z,29.63
2022-11-22T03:44:07.998Z,28.07
2022-11-22T03:46:35.490Z,33.70
2022-11-22T03:49:03.002Z,30.13
2022-11-22T03:51:30.609Z,36.13
2022-11-22T03:53:58.207Z,31.73
2022-11-22T03:56:25.379Z,39.77
2022-11-22T03:58:52.770Z,32.10
2022-11-22T04:01:20.722Z,35.00
2022-11-22T04:03:48.100Z,30.07
2022-11-22T04:06:15.706Z,33.60
2022-11-22T04:08:44.716Z,31.80
2022-11-22T04:11:13.185Z,34.33
2022-11-22T04:14:00.404Z,28.00
2022-11-22T04:16:28.431Z,33.93
2022-11-22T04:18:55.683Z,31.17
2022-11-22T04:21:34.977Z,30.57
2022-11-22T04:24:28.973Z,30.47
2022-11-22T04:26:57.010Z,28.43
2022-11-22T04:29:24.901Z,29.40
2022-11-22T04:32:10.917Z,25.60
2022-11-22T04:34:38.539Z,26.50
2022-11-22T04:37:06.743Z,28.93
2022-11-22T04:39:34.080Z,32.57
2022-11-22T04:42:19.570Z,30.37
2022-11-22T04:44:47.175Z,28.37
2022-11-22T04:47:35.121Z,30.40
2022-11-22T04:50:04.216Z,30.87
2022-11-22T04:52:49.726Z,25.07
2022-11-22T04:55:16.708Z,30.00
2022-11-22T04:57:43.791Z,29.27
2022-11-22T05:00:11.458Z,30.47
2022-11-22T05:02:38.980Z,27.47
2022-11-22T05:05:06.550Z,28.63
2022-11-22T05:07:34.519Z,28.60
2022-11-22T05:10:01.949Z,27.67
2022-11-22T05:12:30.513Z,29.30
2022-11-22T05:14:57.741Z,29.13
2022-11-22T05:17:26.309Z,28.73
2022-11-22T05:19:55.515Z,28.87
2022-11-22T05:22:42.993Z,32.77
2022-11-22T05:25:10.231Z,29.00
2022-11-22T05:27:37.553Z,31.73
2022-11-22T05:30:07.519Z,29.30
2022-11-22T05:32:38.597Z,34.80
2022-11-22T05:35:06.636Z,26.80
2022-11-22T05:40:55.458Z,31.87
2022-11-22T05:43:26.428Z,27.23
2022-11-22T05:45:55.901Z,30.27
2022-11-22T05:48:24.931Z,30.03
2022-11-22T05:50:53.634Z,30.13
2022-11-22T05:53:23.378Z,28.80
2022-11-22T05:55:51.984Z,31.67
2022-11-22T05:58:20.959Z,34.73
2022-11-22T06:00:48.941Z,34.33
2022-11-22T06:03:16.439Z,29.50
2022-11-22T06:05:51.291Z,34.43
2022-11-22T06:08:20.929Z,30.53
2022-11-22T06:10:49.138Z,32.87
2022-11-22T06:13:16.926Z,29.60
2022-11-22T06:15:45.570Z,28.17
2022-11-22T06:18:13.668Z,29.37
2022-11-22T06:20:44.502Z,29.93
2022-11-22T06:23:13.040Z,28.33
2022-11-22T06:25:42.576Z,28.60
2022-11-22T06:28:11.394Z,31.57
2022-11-22T06:30:42.084Z,32.17
2022-11-22T06:33:10.519Z,34.03
2022-11-22T06:35:42.175Z,33.90
2022-11-22T06:38:11.167Z,24.27
2022-11-22T06:40:38.946Z,33.63
2022-11-22T06:43:06.772Z,27.60
2022-11-22T06:45:36.307Z,31.50
2022-11-22T06:48:06.724Z,28.17
2022-11-22T06:50:35.848Z,29.53
2022-11-22T06:53:03.907Z,29.77
2022-11-22T06:55:49.624Z,33.03
2022-11-22T07:01:51.958Z,27.67
2022-11-22T07:04:20.661Z,28.03
2022-11-22T07:06:50.468Z,27.83
2022-11-22T07:09:18.442Z,29.40
2022-11-22T07:11:46.971Z,26.53
2022-11-22T07:14:14.889Z,31.67
2022-11-22T07:16:47.529Z,29.83
2022-11-22T07:19:16.005Z,27.57
2022-11-22T07:21:43.879Z,31.10
2022-11-22T07:24:12.123Z,27.50
2022-11-22T07:26:41.032Z,33.50
2022-11-22T07:29:09.815Z,30.07
2022-11-22T07:31:37.420Z,27.93
2022-11-22T07:34:07.689Z,33.73
2022-11-22T07:36:35.967Z,33.00
2022-11-22T07:39:04.079Z,28.37
2022-11-22T07:41:32.936Z,33.47
2022-11-22T07:44:00.380Z,34.53
2022-11-22T07:46:32.273Z,31.57
2022-11-22T07:49:00.676Z,34.53
2022-11-22T07:51:28.467Z,28.67
2022-11-22T07:53:56.760Z,35.73
2022-11-22T07:56:24.498Z,40.10
2022-11-22T07:58:52.493Z,31.50
2022-11-22T08:01:20.700Z,38.03
2022-11-22T08:03:47.989Z,34.23
2022-11-22T08:06:16.692Z,38.27
2022-11-22T08:08:44.219Z,37.07
2022-11-22T08:11:12.387Z,34.27
2022-11-22T08:13:40.088Z,36.93
2022-11-22T08:16:09.922Z,33.33
2022-11-22T08:18:38.335Z,35.13
2022-11-22T08:21:10.931Z,36.87
2022-11-22T08:23:38.474Z,32.57
2022-11-22T08:26:06.588Z,35.10
2022-11-22T08:28:34.073Z,34.63
2022-11-22T08:31:10.674Z,36.90
2022-11-22T08:33:38.372Z,39.10
2022-11-22T08:36:05.942Z,43.63
2022-11-22T08:38:33.608Z,40.77
2022-11-22T08:41:00.887Z,36.80
2022-11-22T08:43:32.953Z,36.47
2022-11-22T08:46:03.011Z,35.93
2022-11-22T08:48:32.650Z,39.53
2022-11-22T08:51:04.766Z,33.10
2022-11-22T08:53:39.834Z,35.67
2022-11-22T08:56:09.915Z,37.30
2022-11-22T08:58:37.495Z,38.03
2022-11-22T09:01:18.714Z,38.77
2022-11-22T09:03:47.430Z,35.80
2022-11-22T09:12:00.903Z,39.37
2022-11-22T09:14:29.523Z,39.87
2022-11-22T09:16:57.345Z,36.40
2022-11-22T09:19:25.278Z,40.90
2022-11-22T09:21:52.932Z,36.57
2022-11-22T09:24:20.269Z,41.30
2022-11-22T09:26:47.806Z,37.80
2022-11-22T09:29:16.048Z,40.00
2022-11-22T09:31:43.716Z,42.13
2022-11-22T09:34:10.711Z,38.57
2022-11-22T09:36:37.811Z,42.57
2022-11-22T09:39:04.883Z,37.97
2022-11-22T09:41:52.866Z,33.67
2022-11-22T09:44:28.533Z,42.37
2022-11-22T09:47:04.469Z,39.97
2022-11-22T09:49:43.569Z,37.50
2022-11-22T09:52:17.638Z,37.60
2022-11-22T09:54:52.381Z,40.87
2022-11-22T09:57:25.395Z,31.97
2022-11-22T10:00:02.876Z,41.40
2022-11-22T10:02:59.410Z,41.97
2022-11-22T10:05:35.352Z,37.00
2022-11-22T10:08:34.119Z,38.57
2022-11-22T10:11:04.464Z,38.20
2022-11-22T10:13:38.741Z,35.87
2022-11-22T10:16:26.386Z,38.43
2022-11-22T10:19:25.034Z,39.10
2022-11-22T10:21:52.904Z,43.93
2022-11-22T10:24:20.653Z,39.93
2022-11-22T10:26:47.952Z,55.17
2022-11-22T10:29:27.095Z,36.73
2022-11-22T10:32:15.115Z,46.63
2022-11-22T10:35:22.592Z,45.07
2022-11-22T10:38:22.600Z,35.80
2022-11-22T10:41:17.603Z,37.47
2022-11-22T10:44:02.836Z,33.07
2022-11-22T10:46:59.770Z,39.37
2022-11-22T10:50:03.560Z,37.43
2022-11-22T10:52:44.495Z,37.30
2022-11-22T10:55:37.868Z,40.17
2022-11-22T10:58:12.010Z,41.07
2022-11-22T11:00:44.719Z,37.53
2022-11-22T11:03:28.803Z,43.27
2022-11-22T11:11:52.015Z,39.30
2022-11-22T11:14:28.200Z,35.27
2022-11-22T11:17:00.352Z,43.37
2022-11-22T11:19:33.128Z,36.77
2022-11-22T11:22:50.297Z,39.13
2022-11-22T11:25:30.820Z,51.70
2022-11-22T11:28:03.368Z,37.40
2022-11-22T11:30:39.481Z,39.27
2022-11-22T11:33:21.312Z,46.80
2022-11-22T11:35:48.677Z,47.73
2022-11-22T11:38:30.889Z,42.80
2022-11-22T11:41:01.119Z,46.17
2022-11-22T11:43:30.109Z,45.10
2022-11-22T11:46:25.152Z,42.97
2022-11-22T11:49:08.841Z,39.50
2022-11-22T11:52:00.358Z,39.23
2022-11-22T11:54:35.429Z,34.93
2022-11-22T11:57:07.891Z,43.93
2022-11-22T11:59:38.003Z,39.47
2022-11-22T12:02:14.013Z,42.23
2022-11-22T12:05:03.908Z,40.73
2022-11-22T12:07:34.899Z,36.37
2022-11-22T12:10:04.897Z,45.90
2022-11-22T12:13:04.150Z,39.63
2022-11-22T12:15:42.570Z,40.80
2022-11-22T12:18:33.461Z,36.20
2022-11-22T12:21:17.976Z,40.90
2022-11-22T12:24:13.269Z,36.57
2022-11-22T12:26:44.382Z,38.93
2022-11-22T12:29:14.451Z,37.90
2022-11-22T12:31:50.166Z,41.10
2022-11-22T12:34:29.035Z,44.27
2022-11-22T12:37:01.737Z,39.63
2022-11-22T12:39:31.006Z,46.10
2022-11-22T12:42:11.100Z,35.57
2022-11-22T12:44:45.594Z,41.97
2022-11-22T12:47:20.884Z,41.50
2022-11-22T12:49:56.953Z,40.73
2022-11-22T12:52:27.310Z,43.70
2022-11-22T12:55:14.701Z,38.57
2022-11-22T12:57:52.469Z,39.13
2022-11-22T13:00:22.463Z,39.67
2022-11-22T13:02:58.955Z,42.03
2022-11-22T13:06:01.138Z,37.03
2022-11-22T13:08:34.984Z,47.27
2022-11-22T13:11:29.657Z,43.43
2022-11-22T13:14:04.023Z,41.13
2022-11-22T13:16:32.539Z,37.57
2022-11-22T13:19:04.349Z,36.63
2022-11-22T13:21:47.792Z,44.47
2022-11-22T13:24:40.344Z,42.40
2022-11-22T13:27:21.063Z,35.30
2022-11-22T13:29:53.763Z,42.53
2022-11-22T13:32:24.706Z,42.03
2022-11-22T13:35:02.831Z,33.53
2022-11-22T13:37:32.785Z,47.83
2022-11-22T13:40:31.481Z,39.20
2022-11-22T13:43:19.633Z,45.53
2022-11-22T13:45:58.307Z,44.63
2022-11-22T13:48:40.688Z,36.37
2022-11-22T13:51:12.996Z,40.43
2022-11-22T13:53:46.005Z,40.97
2022-11-22T13:56:16.196Z,42.07
2022-11-22T13:58:53.422Z,43.70
2022-11-22T14:01:49.358Z,43.87
2022-11-22T14:04:18.889Z,41.77
2022-11-22T14:06:54.570Z,49.40
2022-11-22T14:09:34.168Z,47.37
2022-11-22T14:12:10.940Z,38.63
2022-11-22T14:14:42.164Z,40.63
2022-11-22T14:17:40.255Z,46.20
2022-11-22T14:20:28.775Z,35.83
2022-11-22T14:23:08.601Z,42.30
2022-11-22T14:26:05.126Z,39.77
2022-11-22T14:28:58.192Z,39.90
2022-11-22T14:31:34.875Z,44.30
2022-11-22T14:34:34.550Z,39.37
2022-11-22T14:37:10.553Z,40.57
2022-11-22T14:39:55.739Z,42.67
2022-11-22T14:42:47.424Z,45.50
2022-11-22T14:45:31.488Z,43.90
2022-11-22T14:48:13.813Z,41.73
2022-11-22T14:50:46.531Z,44.27
2022-11-22T14:53:32.606Z,46.10
2022-11-22T14:56:13.004Z,44.93
2022-11-22T14:58:55.590Z,48.03
2022-11-22T15:01:47.041Z,45.37
2022-11-22T15:09:20.358Z,43.20
2022-11-22T15:09:22.472Z,42.87
2022-11-22T15:11:01.171Z,44.23
2022-11-22T15:13:40.081Z,40.57
2022-11-22T15:57:44.859Z,44.10
2022-11-22T16:00:28.982Z,46.03
2022-11-22T16:03:06.890Z,48.13
2022-11-22T16:06:06.253Z,47.80
2022-11-22T16:08:29.410Z,47.13
2022-11-22T16:11:00.176Z,47.07
2022-11-22T16:13:33.179Z,44.67
2022-11-22T16:16:14.118Z,47.23
2022-11-22T16:18:43.656Z,50.23
2022-11-22T16:21:13.583Z,48.33
2022-11-22T16:23:42.157Z,48.17
2022-11-22T16:26:19.433Z,47.23
2022-11-22T16:28:48.339Z,52.20
2022-11-22T16:31:23.302Z,50.53
2022-11-22T16:33:52.047Z,50.63
2022-11-22T16:36:21.919Z,49.90
2022-11-22T16:38:50.205Z,46.03
2022-11-22T16:41:23.632Z,50.37
2022-11-22T16:43:57.041Z,53.83
2022-11-22T16:46:23.828Z,45.07
2022-11-22T16:48:51.272Z,52.47
2022-11-22T16:51:30.931Z,47.07
2022-11-22T16:53:59.980Z,52.10
2022-11-22T16:56:30.151Z,48.10
2022-11-22T16:58:58.298Z,49.37
2022-11-22T17:01:31.064Z,49.20
2022-11-22T17:03:59.792Z,51.20
2022-11-22T17:06:32.399Z,47.43
2022-11-22T17:09:00.822Z,54.17
2022-11-22T17:11:31.771Z,46.50
2022-11-22T17:14:01.635Z,54.07
2022-11-22T17:16:29.378Z,46.40
2022-11-22T17:18:58.232Z,56.13
2022-11-22T17:21:34.487Z,54.47
2022-11-22T17:24:07.701Z,53.27
2022-11-22T17:26:34.961Z,47.47
2022-11-22T17:29:02.534Z,48.70
2022-11-22T17:31:29.742Z,50.70
2022-11-22T17:34:00.823Z,55.33
2022-11-22T17:36:46.946Z,52.57
2022-11-22T17:39:16.936Z,51.93
2022-11-22T17:41:51.221Z,54.77
2022-11-22T17:44:18.727Z,61.43
2022-11-22T17:46:47.379Z,55.03
2022-11-22T17:49:16.656Z,56.77
2022-11-22T17:51:44.346Z,50.77
2022-11-22T17:54:19.100Z,52.40
2022-11-22T17:56:47.290Z,50.70
2022-11-22T18:02:08.375Z,48.37
2022-11-22T18:04:35.574Z,55.77
2022-11-22T18:07:03.204Z,49.00
2022-11-22T18:09:32.690Z,55.33
2022-11-22T18:12:00.391Z,54.13
2022-11-22T18:14:28.452Z,59.60
2022-11-22T18:16:55.430Z,52.73
2022-11-22T18:19:24.455Z,54.83
2022-11-22T18:21:53.079Z,54.37
2022-11-22T18:24:21.586Z,58.43
2022-11-22T18:26:53.740Z,51.37
2022-11-22T18:32:10.180Z,55.00
2022-11-22T18:34:39.592Z,55.77
2022-11-22T18:37:07.265Z,55.20
2022-11-22T18:39:40.195Z,52.10
2022-11-22T18:42:15.523Z,73.23
2022-11-22T18:44:44.244Z,58.47
2022-11-22T18:47:11.678Z,53.37
2022-11-22T18:49:40.251Z,54.87
2022-11-22T18:52:10.702Z,56.53
2022-11-22T18:54:40.584Z,54.43
2022-11-22T18:57:08.382Z,65.07
2022-11-22T18:59:36.241Z,64.60
2022-11-22T19:02:05.177Z,58.73
2022-11-22T19:04:34.703Z,56.57
2022-11-22T19:07:01.971Z,61.13
2022-11-22T19:09:30.436Z,63.60
2022-11-22T19:11:59.600Z,62.47
2022-11-22T19:14:29.956Z,57.47
2022-11-22T19:16:57.869Z,52.90
2022-11-22T19:19:25.554Z,57.80
2022-11-22T19:23:05.005Z,62.10
2022-11-22T19:25:32.673Z,55.13
2022-11-22T19:28:05.819Z,64.70
2022-11-22T19:30:33.995Z,56.20
2022-11-22T19:33:01.953Z,59.77
2022-11-22T19:35:31.812Z,59.33
2022-11-22T19:37:59.249Z,61.73
2022-11-22T19:40:27.450Z,56.77
2022-11-22T19:42:54.476Z,67.53
2022-11-22T19:45:57.256Z,62.43
2022-11-22T19:48:23.205Z,63.75
2022-11-22T19:50:51.001Z,63.50
2022-11-22T19:53:18.530Z,61.00
2022-11-22T19:55:46.669Z,62.20
2022-11-22T19:58:14.224Z,57.30
2022-11-22T20:00:44.728Z,59.00
2022-11-22T20:03:14.317Z,60.53
2022-11-22T20:05:42.460Z,60.20
2022-11-22T20:08:10.285Z,57.63
2022-11-22T20:10:48.757Z,63.77
2022-11-22T20:13:16.213Z,64.87
2022-11-22T20:15:43.884Z,57.27
2022-11-22T20:18:11.368Z,60.77
2022-11-22T20:20:40.223Z,64.80
2022-11-22T20:23:07.673Z,70.63
2022-11-22T20:25:34.944Z,59.87
2022-11-22T20:28:02.098Z,67.50
2022-11-22T20:30:29.837Z,68.60
2022-11-22T20:32:57.156Z,67.13
2022-11-22T20:35:26.077Z,58.67
2022-11-22T20:37:54.870Z,64.50
2022-11-22T20:40:22.681Z,64.03
2022-11-22T20:42:51.215Z,61.33
2022-11-22T20:45:19.725Z,60.47
2022-11-22T20:47:47.240Z,64.13
2022-11-22T20:50:17.521Z,69.77
2022-11-22T20:52:45.832Z,74.73
2022-11-22T20:55:15.434Z,66.80
2022-11-22T20:57:43.347Z,69.40
2022-11-22T21:00:12.892Z,65.47
2022-11-22T21:02:40.461Z,68.90
2022-11-22T21:05:10.093Z,66.17
2022-11-22T21:07:37.150Z,64.93
2022-11-22T21:10:04.732Z,72.50
2022-11-22T21:12:32.182Z,69.80
2022-11-22T21:15:00.181Z,71.57
2022-11-22T21:17:45.646Z,60.00
2022-11-22T21:20:20.369Z,69.97
2022-11-22T21:22:55.003Z,80.67
2022-11-22T21:25:22.875Z,73.73
2022-11-22T21:27:50.376Z,72.37
2022-11-22T21:30:18.679Z,78.47
2022-11-22T21:32:46.416Z,80.13
2022-11-22T21:35:13.852Z,82.60
2022-11-22T21:37:45.422Z,69.33
2022-11-22T21:40:14.590Z,73.40
2022-11-22T21:42:42.238Z,69.37
2022-11-22T21:45:11.452Z,76.57
2022-11-22T21:47:39.216Z,69.63
2022-11-22T21:50:11.485Z,77.67
2022-11-22T21:52:40.427Z,76.57
2022-11-22T21:55:07.969Z,64.87
2022-11-22T21:57:35.519Z,72.83
2022-11-22T22:00:07.468Z,67.47
2022-11-22T22:02:35.722Z,65.27
2022-11-22T22:05:05.027Z,74.97
2022-11-22T22:07:52.057Z,68.93
2022-11-22T22:10:21.029Z,69.63
2022-11-22T22:12:52.682Z,72.53
2022-11-22T22:15:21.048Z,66.03
2022-11-22T22:17:50.272Z,73.67
2022-11-22T22:20:21.571Z,72.17
2022-11-22T22:22:56.832Z,69.87
2022-11-22T22:25:26.065Z,72.67
2022-11-22T22:27:57.089Z,62.67
2022-11-22T22:30:25.457Z,66.23
2022-11-22T22:32:52.705Z,71.50
2022-11-22T22:35:21.337Z,70.03
2022-11-22T22:37:50.145Z,73.40
2022-11-22T22:40:18.846Z,69.97
2022-11-22T22:42:50.261Z,76.13
2022-11-22T22:45:17.992Z,67.17
2022-11-22T22:47:45.836Z,72.57
2022-11-22T22:50:13.639Z,70.30
2022-11-22T22:52:41.928Z,71.07
2022-11-22T22:55:10.070Z,68.53
2022-11-22T22:57:37.745Z,77.43
2022-11-22T23:00:05.983Z,70.83
2022-11-22T23:02:35.262Z,71.23
2022-11-22T23:05:02.863Z,64.97
2022-11-22T23:07:32.393Z,74.67
2022-11-22T23:10:00.510Z,65.33
2022-11-22T23:12:31.826Z,69.50
2022-11-22T23:15:00.083Z,72.77
2022-11-22T23:17:28.769Z,77.43
2022-11-22T23:19:56.641Z,76.80
2022-11-22T23:22:26.129Z,76.97
2022-11-22T23:24:53.806Z,71.70
2022-11-22T23:27:21.508Z,71.93
2022-11-22T23:29:50.396Z,73.73
2022-11-22T23:32:18.165Z,71.43
2022-11-22T23:34:46.230Z,77.70
2022-11-22T23:37:14.085Z,74.27
2022-11-22T23:39:42.085Z,77.33
2022-11-22T23:42:10.537Z,81.07
2022-11-22T23:44:39.419Z,74.73
2022-11-22T23:47:07.355Z,65.83
2022-11-22T23:49:34.803Z,74.13
2022-11-22T23:52:02.322Z,74.37
2022-11-22T23:54:30.251Z,73.63
2022-11-22T23:56:58.137Z,77.43
2022-11-22T23:59:26.125Z,80.77
